Brookville, KS (67425)

3:22 AM CDT on September 01, 2015 (GMT -0500)
Salina Municipal | | Change Station
CLOSE
Current Station
Airport
Location: Salina,
Elevation: 1286 ft
Nearby Weather Stations

Elev 1286 ft 38.80 °N, 97.65 °W | Updated 29 minutes ago

Clear
Clear
76 °F
Feels Like 76 °F
N
14
Wind Variable Wind from South

Today
High -- | Low -- °F
--% Chance of Precip.
Yesterday
High -- | Low -- °F
Precip. -- in
7:00 AM 8:02 PM
Waning Gibbous, 90% visible
Pressure 29.90 in
Visibility 10.0 miles
Clouds Clear
Dew Point 63 °F
Humidity 64%
Rainfall 0.00 in
Snow Depth Not available.
UV 0 out of 12
Pollen 10.50 out of 12
Air Quality Not available.
Flu Activity Not available.
METAR KSLN 010753Z AUTO 19012KT 10SM CLR 24/17 A2995 RMK AO2 SLP124 T02440172
Pressure 29.90 in
Visibility 10.0 miles
Clouds Clear
Dew Point 63 °F
Humidity 64%
Rainfall 0.00 in
Snow Depth Not available.
UV 0 out of 12
Pollen 10.50 out of 12
Air Quality Not available.
Flu Activity Not available.
METAR KSLN 010753Z AUTO 19012KT 10SM CLR 24/17 A2995 RMK AO2 SLP124 T02440172

10-Day Weather Forecast

×

Almanac

Astronomy

Sep. 01, 2015 Rise Set
Actual Time
Civil Twilight
Nautical Twilight
Astronomical Twilight
Moon
Length of Visible Light
Length of Day
Tomorrow will be .
, % of the Moon is Illuminated

Today's Extremes

State Highs State Lows

Community

WunderPhotos

Upload Photos

1,851,490 photos uploaded!

WunderBlogs® & News

Nearby

Air Quality

  Air Quality AQ Index Pollutant
Not available.

Snow Depth

Station Depth Elevation

Earthquake Activity

City Distance Mag. Time & Date
Minimum magnitude displayed is 2.5.

Coastal Water Temperatures

Place Temperature

Stations

Nearby Weather Stations

Station Location Temp. Windchill Dew Point Humidity Wind Precip. Elev Updated Type